createdAt,value
2023-02-12T07:11:13.753Z,3.43
2023-02-12T07:16:16.870Z,3.42
2023-02-12T07:21:19.171Z,3.45
2023-02-12T07:26:22.109Z,3.46
2023-02-12T07:31:24.328Z,3.55
2023-02-12T07:36:31.233Z,3.42
2023-02-12T07:41:35.805Z,3.45
2023-02-12T07:46:41.017Z,3.47
2023-02-12T07:51:43.178Z,3.64
2023-02-12T07:56:47.293Z,3.66
2023-02-12T08:01:51.410Z,3.60
2023-02-12T08:06:55.061Z,3.55
2023-02-12T08:11:56.789Z,3.56
2023-02-12T08:16:58.538Z,3.69
2023-02-12T08:22:03.433Z,3.70
2023-02-12T08:27:05.587Z,3.83
2023-02-12T08:32:10.726Z,3.84
2023-02-12T08:37:13.022Z,3.79
2023-02-12T08:42:14.670Z,3.74
2023-02-12T08:47:16.308Z,3.79
2023-02-12T08:52:19.493Z,3.83
2023-02-12T08:57:21.205Z,3.89
2023-02-12T09:02:23.070Z,3.94
2023-02-12T09:07:24.884Z,4.20
2023-02-12T09:12:26.587Z,4.25
2023-02-12T09:17:28.784Z,4.26
2023-02-12T09:22:30.476Z,4.32
2023-02-12T09:27:32.418Z,4.40
2023-02-12T09:32:34.152Z,4.59
2023-02-12T09:37:35.796Z,4.63
2023-02-12T09:43:06.640Z,4.45
2023-02-12T09:48:31.703Z,4.56
2023-02-12T09:53:38.635Z,4.74
2023-02-12T09:58:51.343Z,4.79
2023-02-12T10:03:54.414Z,4.93
2023-02-12T10:09:14.917Z,4.82
2023-02-12T10:14:41.027Z,5.03
2023-02-12T10:19:51.367Z,4.99
2023-02-12T10:25:04.900Z,5.23
2023-02-12T10:30:40.211Z,5.37
2023-02-12T10:35:49.412Z,5.43
2023-02-12T10:40:51.260Z,5.45
2023-02-12T10:45:53.456Z,5.44
2023-02-12T10:51:10.243Z,5.56
2023-02-12T10:56:12.141Z,5.64
2023-02-12T11:01:18.179Z,5.65
2023-02-12T11:06:27.904Z,5.74
2023-02-12T11:11:31.641Z,5.69
2023-02-12T11:16:36.735Z,5.84
2023-02-12T11:21:38.459Z,6.01
2023-02-12T11:26:40.233Z,6.14
2023-02-12T11:31:42.715Z,6.02
2023-02-12T11:36:50.633Z,6.09
2023-02-12T11:41:59.074Z,6.13
2023-02-12T11:47:09.310Z,6.18
2023-02-12T11:52:23.102Z,6.10
2023-02-12T11:57:51.144Z,6.02
2023-02-12T12:03:13.255Z,6.46
2023-02-12T12:08:26.033Z,6.43
2023-02-12T12:13:36.883Z,6.34
2023-02-12T12:19:14.408Z,6.32
2023-02-12T12:24:28.766Z,6.54
2023-02-12T12:29:58.785Z,6.67
2023-02-12T12:35:00.513Z,6.40
2023-02-12T12:40:23.386Z,6.58
2023-02-12T12:45:46.481Z,6.82
2023-02-12T12:51:09.680Z,6.83
2023-02-12T12:56:34.205Z,7.16
2023-02-12T13:02:00.330Z,6.99
2023-02-12T13:07:20.581Z,6.86
2023-02-12T13:12:54.685Z,7.22
2023-02-12T13:18:17.754Z,7.20
2023-02-12T13:23:44.450Z,7.37
2023-02-12T13:28:56.838Z,7.15
2023-02-12T13:34:05.538Z,7.00
2023-02-12T13:39:29.199Z,7.25
2023-02-12T13:44:56.409Z,7.07
2023-02-12T13:50:23.982Z,7.14
2023-02-12T13:55:50.475Z,7.36
2023-02-12T14:00:52.191Z,7.65
2023-02-12T14:06:13.824Z,7.49
2023-02-12T14:11:22.745Z,7.16
2023-02-12T14:16:30.753Z,7.45
2023-02-12T14:21:36.060Z,7.28
2023-02-12T14:26:38.414Z,7.55
2023-02-12T14:31:40.278Z,7.29
2023-02-12T14:36:44.670Z,7.58
2023-02-12T14:41:47.813Z,7.76
2023-02-12T14:46:56.407Z,7.59
2023-02-12T14:52:15.499Z,7.56
2023-02-12T14:57:27.933Z,7.18
2023-02-12T15:02:36.356Z,7.01
2023-02-12T15:07:46.010Z,6.98
2023-02-12T15:12:57.795Z,6.67
2023-02-12T15:18:24.646Z,6.46
2023-02-12T15:24:04.782Z,6.29
2023-02-12T15:29:07.621Z,6.42
2023-02-12T15:34:22.132Z,6.15
2023-02-12T15:39:24.839Z,6.21
2023-02-12T15:44:31.569Z,6.08
2023-02-12T15:49:36.774Z,5.91
2023-02-12T15:54:39.362Z,5.95
2023-02-12T15:59:41.378Z,5.66
2023-02-12T16:04:44.591Z,5.51
2023-02-12T16:09:48.609Z,5.31
2023-02-12T16:14:56.235Z,5.03
2023-02-12T16:20:02.342Z,4.82
2023-02-12T16:25:11.582Z,4.68
2023-02-12T16:30:32.102Z,4.52
2023-02-12T16:35:35.700Z,4.39
2023-02-12T16:40:37.604Z,4.11
2023-02-12T16:45:41.270Z,4.09
2023-02-12T16:50:54.755Z,4.18
2023-02-12T16:55:56.964Z,4.10
2023-02-12T17:01:03.257Z,3.83
2023-02-12T17:06:05.166Z,3.72
2023-02-12T17:11:07.598Z,3.78
2023-02-12T17:16:12.743Z,3.47
2023-02-12T17:21:29.597Z,3.54
2023-02-12T17:26:31.266Z,3.55
2023-02-12T17:31:34.211Z,3.64
2023-02-12T17:36:36.203Z,3.50
2023-02-12T17:41:38.012Z,3.48
2023-02-12T17:46:40.464Z,3.39
2023-02-12T17:51:42.787Z,3.51
2023-02-12T17:56:44.563Z,3.49
2023-02-12T18:01:46.350Z,3.37
2023-02-12T18:06:48.480Z,3.48
2023-02-12T18:11:50.255Z,3.21
2023-02-12T18:16:51.966Z,3.18
2023-02-12T18:21:54.261Z,3.41
2023-02-12T18:26:56.941Z,3.19
2023-02-12T18:32:00.000Z,3.14
2023-02-12T18:37:01.727Z,3.15
2023-02-12T18:42:04.607Z,3.07
2023-02-12T18:47:06.253Z,3.24
2023-02-12T18:52:08.110Z,2.99
2023-02-12T18:57:10.092Z,3.08
2023-02-12T19:02:14.033Z,3.11
2023-02-12T19:07:15.782Z,2.84
2023-02-12T19:12:17.506Z,3.12
2023-02-12T19:17:19.158Z,2.95
2023-02-12T19:22:20.837Z,2.98
2023-02-12T19:27:22.543Z,3.08
2023-02-12T19:32:24.281Z,2.93
2023-02-12T19:37:26.037Z,2.80
2023-02-12T19:42:27.717Z,2.79
2023-02-12T19:47:29.437Z,2.78
2023-02-12T19:52:31.185Z,2.77
2023-02-12T19:57:33.617Z,2.72
2023-02-12T20:02:35.324Z,2.73
2023-02-12T20:07:36.979Z,2.35
2023-02-12T20:12:41.277Z,2.59
2023-02-12T20:17:42.984Z,2.32
2023-02-12T20:22:44.719Z,2.23
2023-02-12T20:27:46.468Z,2.20
2023-02-12T20:32:48.172Z,2.50
2023-02-12T20:37:49.840Z,2.28
2023-02-12T20:42:51.439Z,2.33
2023-02-12T20:47:53.132Z,2.19
2023-02-12T20:52:54.809Z,2.13
2023-02-12T20:57:56.476Z,2.21
2023-02-12T21:03:00.545Z,2.18
2023-02-12T21:08:02.270Z,2.09
2023-02-12T21:13:03.943Z,2.26
2023-02-12T21:18:05.703Z,2.02
2023-02-12T21:23:07.396Z,2.04
2023-02-12T21:28:09.171Z,2.08
2023-02-12T21:33:10.819Z,1.78
2023-02-12T21:38:12.547Z,1.91
